Time;durP1;ratioP1;P1;durP2;ratioP2;P2;SDS_P1;SDS_P2;PMS_P1;PMS_P2;Temp;Humidity;BMP_temperature;BMP_pressure;BME280_temperature;BME280_humidity;BME280_pressure;Samples;Min_cycle;Max_cycle;Signal;HPM_P1;HPM_P2
2024/01/18 00:01:55;;;;;;;7.03;4.60;;;;;;;;;;6306998;28;20031;-90
2024/01/18 00:04:55;;;;;;;8.13;4.60;;;;;;;;;;6308329;28;20551;-82
2024/01/18 00:07:56;;;;;;;8.97;5.23;;;;;;;;;;6328894;28;20044;-83
2024/01/18 00:10:56;;;;;;;8.50;4.83;;;;;;;;;;6331140;28;20452;-83
2024/01/18 00:13:56;;;;;;;7.47;4.73;;;;;;;;;;6305956;28;20056;-82
2024/01/18 00:16:56;;;;;;;7.63;5.13;;;;;;;;;;6317915;28;20021;-83
2024/01/18 00:19:57;;;;;;;8.60;5.20;;;;;;;;;;6332646;28;20016;-82
2024/01/18 00:22:57;;;;;;;8.33;4.97;;;;;;;;;;6324886;28;20087;-84
2024/01/18 00:25:57;;;;;;;9.87;4.93;;;;;;;;;;6329118;28;20020;-82
2024/01/18 00:28:59;;;;;;;8.13;5.30;;;;;;;;;;6334581;28;20040;-83
2024/01/18 00:31:59;;;;;;;9.52;4.85;;;;;;;;;;6310640;28;20024;-83
2024/01/18 00:35:00;;;;;;;8.60;4.93;;;;;;;;;;6315143;28;20487;-82
2024/01/18 00:38:00;;;;;;;7.63;4.93;;;;;;;;;;6333584;28;20373;-83
2024/01/18 00:41:00;;;;;;;9.70;5.13;;;;;;;;;;6336652;28;20032;-82
2024/01/18 00:44:01;;;;;;;8.23;5.47;;;;;;;;;;6335469;28;20102;-82
2024/01/18 00:47:01;;;;;;;8.33;5.53;;;;;;;;;;6315229;28;20055;-82
2024/01/18 00:50:01;;;;;;;8.90;5.10;;;;;;;;;;6314973;28;20024;-82
2024/01/18 00:53:01;;;;;;;7.67;4.47;;;;;;;;;;6329827;28;20161;-82
2024/01/18 00:56:02;;;;;;;8.47;4.53;;;;;;;;;;6327882;28;20540;-82
2024/01/18 00:59:02;;;;;;;7.93;4.93;;;;;;;;;;6334592;28;20062;-82
2024/01/18 01:02:05;;;;;;;6.70;4.60;;;;;;;;;;6329134;28;20164;-84
2024/01/18 01:05:06;;;;;;;8.88;4.90;;;;;;;;;;6330953;28;20413;-82
2024/01/18 01:08:06;;;;;;;7.03;4.80;;;;;;;;;;6326178;28;20191;-83
2024/01/18 01:11:09;;;;;;;8.87;4.90;;;;;;;;;;6313169;28;20110;-83
2024/01/18 01:14:09;;;;;;;8.48;5.03;;;;;;;;;;6331727;28;20028;-83
2024/01/18 01:17:10;;;;;;;7.77;4.87;;;;;;;;;;6337108;28;20089;-91
2024/01/18 01:20:10;;;;;;;9.43;5.03;;;;;;;;;;6330828;28;20057;-92
2024/01/18 01:23:11;;;;;;;9.30;5.13;;;;;;;;;;6317457;28;20024;-91
2024/01/18 01:26:11;;;;;;;7.50;4.50;;;;;;;;;;6316990;28;20086;-92
2024/01/18 01:29:11;;;;;;;6.77;4.60;;;;;;;;;;6336808;28;20476;-91
2024/01/18 01:32:12;;;;;;;7.67;4.83;;;;;;;;;;6334068;28;20111;-91
2024/01/18 01:35:12;;;;;;;10.37;5.17;;;;;;;;;;6321484;28;20483;-92
2024/01/18 01:38:12;;;;;;;8.93;5.30;;;;;;;;;;6315693;28;20047;-91
2024/01/18 01:41:13;;;;;;;9.53;5.07;;;;;;;;;;6315299;28;20043;-91
2024/01/18 01:44:13;;;;;;;6.57;4.47;;;;;;;;;;6333718;28;20028;-91
2024/01/18 01:47:14;;;;;;;7.33;4.83;;;;;;;;;;6322879;28;20485;-91
2024/01/18 01:50:14;;;;;;;7.17;4.43;;;;;;;;;;6315855;28;20081;-92
2024/01/18 01:53:15;;;;;;;7.23;4.57;;;;;;;;;;6318040;28;20027;-91
2024/01/18 01:56:15;;;;;;;9.13;4.95;;;;;;;;;;6339252;28;20016;-93
2024/01/18 01:59:16;;;;;;;7.80;4.80;;;;;;;;;;6314556;28;22396;-90
2024/01/18 02:02:17;;;;;;;7.28;4.45;;;;;;;;;;6336144;28;20098;-91
2024/01/18 02:05:18;;;;;;;7.65;4.63;;;;;;;;;;6334213;28;20028;-91
2024/01/18 02:08:18;;;;;;;7.43;4.50;;;;;;;;;;6315123;28;20074;-92
2024/01/18 02:11:18;;;;;;;8.30;5.20;;;;;;;;;;6318939;28;20027;-91
2024/01/18 02:14:18;;;;;;;7.63;4.53;;;;;;;;;;6333585;28;20062;-92
2024/01/18 02:17:19;;;;;;;8.17;4.77;;;;;;;;;;6321493;28;20034;-90
2024/01/18 02:20:19;;;;;;;8.13;4.67;;;;;;;;;;6331513;28;20023;-91
2024/01/18 02:23:19;;;;;;;7.47;4.50;;;;;;;;;;6335493;28;20469;-92
2024/01/18 02:26:20;;;;;;;9.73;5.30;;;;;;;;;;6338921;28;20524;-82
2024/01/18 02:29:20;;;;;;;7.17;4.60;;;;;;;;;;6337887;28;20190;-82
2024/01/18 02:32:20;;;;;;;7.40;4.93;;;;;;;;;;6334829;28;20012;-83
2024/01/18 02:35:21;;;;;;;8.63;4.83;;;;;;;;;;6338123;28;20032;-82
2024/01/18 02:38:21;;;;;;;7.30;4.40;;;;;;;;;;6318690;28;20051;-82
2024/01/18 02:41:22;;;;;;;10.60;5.10;;;;;;;;;;6335314;28;20532;-82
2024/01/18 02:44:24;;;;;;;9.97;5.37;;;;;;;;;;6334373;28;20120;-82
2024/01/18 02:47:26;;;;;;;8.23;5.30;;;;;;;;;;6336470;28;20027;-83
2024/01/18 02:50:26;;;;;;;9.95;5.45;;;;;;;;;;6313109;28;20025;-83
2024/01/18 02:53:27;;;;;;;10.93;5.87;;;;;;;;;;6337742;28;20270;-84
2024/01/18 02:56:27;;;;;;;10.67;5.77;;;;;;;;;;6331798;28;20027;-82
2024/01/18 02:59:27;;;;;;;9.70;5.50;;;;;;;;;;6334661;28;20125;-82
2024/01/18 03:02:27;;;;;;;9.57;5.20;;;;;;;;;;6336473;28;20420;-83
2024/01/18 03:05:28;;;;;;;11.73;6.17;;;;;;;;;;6318263;28;20015;-85
2024/01/18 03:08:28;;;;;;;11.07;5.13;;;;;;;;;;6332116;28;20024;-84
2024/01/18 03:11:29;;;;;;;10.43;5.37;;;;;;;;;;6318033;28;20047;-83
2024/01/18 03:14:29;;;;;;;8.90;5.27;;;;;;;;;;6336442;28;20024;-84
2024/01/18 03:17:29;;;;;;;9.13;5.43;;;;;;;;;;6334348;28;20771;-84
2024/01/18 03:20:29;;;;;;;8.63;5.43;;;;;;;;;;6336994;28;20058;-83
2024/01/18 03:23:30;;;;;;;10.00;5.37;;;;;;;;;;6320332;28;20118;-81
2024/01/18 03:26:30;;;;;;;9.87;5.33;;;;;;;;;;6336418;28;20027;-81
2024/01/18 03:29:30;;;;;;;8.20;5.17;;;;;;;;;;6332360;28;20036;-81
2024/01/18 03:32:30;;;;;;;8.80;5.53;;;;;;;;;;6319624;28;20136;-83
2024/01/18 03:35:31;;;;;;;8.90;5.57;;;;;;;;;;6333811;28;20007;-89
2024/01/18 03:38:31;;;;;;;11.20;5.70;;;;;;;;;;6319777;28;20023;-88
2024/01/18 03:41:31;;;;;;;11.27;5.93;;;;;;;;;;6335131;28;20012;-86
2024/01/18 03:44:35;;;;;;;8.90;5.67;;;;;;;;;;6337011;28;20371;-87
2024/01/18 03:47:35;;;;;;;8.98;5.57;;;;;;;;;;6338282;28;20027;-87
2024/01/18 03:50:35;;;;;;;11.93;5.40;;;;;;;;;;6317156;28;20032;-88
2024/01/18 03:53:36;;;;;;;9.83;5.70;;;;;;;;;;6313695;28;20039;-88
2024/01/18 03:56:37;;;;;;;9.07;5.78;;;;;;;;;;6336098;28;20023;-88
2024/01/18 03:59:37;;;;;;;9.73;5.20;;;;;;;;;;6332541;28;20032;-87
2024/01/18 04:02:37;;;;;;;8.90;5.07;;;;;;;;;;6337589;28;20376;-88
2024/01/18 04:05:37;;;;;;;10.93;5.87;;;;;;;;;;6331664;28;20016;-87
2024/01/18 04:08:38;;;;;;;12.07;6.23;;;;;;;;;;6336066;28;20039;-88
2024/01/18 04:11:39;;;;;;;11.40;5.35;;;;;;;;;;6318203;28;20020;-88
2024/01/18 04:14:43;;;;;;;10.27;5.47;;;;;;;;;;6317532;28;20487;-87
2024/01/18 04:17:43;;;;;;;10.60;5.45;;;;;;;;;;6335098;28;20408;-86
2024/01/18 04:20:43;;;;;;;10.73;6.07;;;;;;;;;;6330320;28;20104;-86
2024/01/18 04:23:44;;;;;;;8.80;5.60;;;;;;;;;;6332268;28;20536;-87
2024/01/18 04:26:44;;;;;;;9.80;5.80;;;;;;;;;;6331903;28;20015;-85
2024/01/18 04:29:44;;;;;;;9.93;5.73;;;;;;;;;;6335328;28;20511;-87
2024/01/18 04:32:45;;;;;;;8.13;5.13;;;;;;;;;;6335501;28;20407;-87
2024/01/18 04:35:45;;;;;;;8.70;5.23;;;;;;;;;;6333660;28;20527;-88
2024/01/18 04:38:45;;;;;;;9.17;5.20;;;;;;;;;;6336366;28;20016;-88
2024/01/18 04:41:46;;;;;;;9.00;5.43;;;;;;;;;;6336934;28;20094;-87
2024/01/18 04:44:46;;;;;;;9.30;5.50;;;;;;;;;;6337290;28;20028;-87
2024/01/18 04:47:46;;;;;;;8.57;5.00;;;;;;;;;;6331182;28;20391;-89
2024/01/18 04:50:47;;;;;;;9.43;5.50;;;;;;;;;;6311607;28;20032;-88
2024/01/18 04:53:47;;;;;;;8.13;5.60;;;;;;;;;;6332596;28;20020;-87
2024/01/18 04:56:47;;;;;;;9.47;5.13;;;;;;;;;;6339827;28;20015;-88
2024/01/18 04:59:48;;;;;;;8.33;5.07;;;;;;;;;;6338542;28;20403;-88
2024/01/18 05:02:48;;;;;;;8.40;5.17;;;;;;;;;;6338365;28;20487;-88
2024/01/18 05:05:48;;;;;;;9.87;5.37;;;;;;;;;;6337718;28;20047;-90
2024/01/18 05:08:49;;;;;;;9.73;5.00;;;;;;;;;;6324048;28;20035;-86
2024/01/18 05:11:49;;;;;;;9.63;5.17;;;;;;;;;;6338443;28;20028;-88
2024/01/18 05:14:49;;;;;;;10.13;5.33;;;;;;;;;;6339761;28;20148;-88
2024/01/18 05:17:50;;;;;;;10.53;5.20;;;;;;;;;;6340366;28;20439;-87
2024/01/18 05:20:50;;;;;;;9.60;5.33;;;;;;;;;;6339864;28;20064;-87
2024/01/18 05:23:50;;;;;;;8.73;5.03;;;;;;;;;;6338390;28;20096;-86
2024/01/18 05:26:50;;;;;;;10.00;5.53;;;;;;;;;;6339492;28;20014;-87
2024/01/18 05:29:51;;;;;;;9.30;5.87;;;;;;;;;;6335054;28;20036;-87
2024/01/18 05:32:51;;;;;;;9.87;5.67;;;;;;;;;;6340719;28;20038;-86
2024/01/18 05:35:52;;;;;;;9.90;5.30;;;;;;;;;;6335241;28;20032;-87
2024/01/18 05:38:52;;;;;;;8.87;5.17;;;;;;;;;;6327351;28;20020;-86
2024/01/18 05:41:53;;;;;;;10.70;5.77;;;;;;;;;;6336627;28;20032;-87
2024/01/18 05:44:53;;;;;;;8.90;5.23;;;;;;;;;;6340448;28;20020;-85
2024/01/18 05:47:53;;;;;;;9.43;4.77;;;;;;;;;;6339564;28;20028;-86
2024/01/18 05:50:53;;;;;;;10.67;5.80;;;;;;;;;;6334704;28;20474;-85
2024/01/18 05:53:55;;;;;;;9.07;5.33;;;;;;;;;;6334703;28;20030;-86
2024/01/18 05:56:55;;;;;;;9.15;5.40;;;;;;;;;;6314631;28;20030;-85
2024/01/18 05:59:55;;;;;;;9.37;5.33;;;;;;;;;;6339041;28;20032;-86
2024/01/18 06:02:56;;;;;;;8.70;5.10;;;;;;;;;;6335402;28;20027;-85
2024/01/18 06:05:58;;;;;;;11.10;5.23;;;;;;;;;;6332270;28;20096;-85
2024/01/18 06:08:58;;;;;;;;;;;;;;;;;;6339507;28;20023;-85
2024/01/18 06:11:58;;;;;;;9.07;4.70;;;;;;;;;;6338907;28;19965;-85
2024/01/18 06:14:58;;;;;;;9.00;4.70;;;;;;;;;;6319992;28;20099;-85
2024/01/18 06:18:03;;;;;;;8.03;5.10;;;;;;;;;;6336332;28;20479;-85
2024/01/18 06:21:06;;;;;;;8.52;4.95;;;;;;;;;;6336691;28;20042;-84
2024/01/18 06:24:08;;;;;;;10.13;5.00;;;;;;;;;;6319250;28;20023;-85
2024/01/18 06:27:08;;;;;;;8.45;5.13;;;;;;;;;;6340000;28;20032;-84
2024/01/18 06:30:10;;;;;;;8.40;4.73;;;;;;;;;;6321976;28;20112;-85
2024/01/18 06:33:11;;;;;;;8.07;5.07;;;;;;;;;;6337810;28;20519;-85
2024/01/18 06:36:14;;;;;;;7.17;4.17;;;;;;;;;;6317760;28;20077;-85
2024/01/18 06:39:15;;;;;;;10.73;5.05;;;;;;;;;;6318344;28;20039;-85
2024/01/18 06:42:16;;;;;;;9.02;5.18;;;;;;;;;;6337780;28;20383;-84
2024/01/18 06:45:17;;;;;;;8.10;4.95;;;;;;;;;;6336833;28;20032;-85
2024/01/18 06:48:17;;;;;;;7.87;4.90;;;;;;;;;;6334682;28;20091;-85
2024/01/18 06:51:18;;;;;;;6.27;4.47;;;;;;;;;;6333953;28;20031;-84
2024/01/18 06:54:21;;;;;;;6.77;4.50;;;;;;;;;;6321130;28;20413;-85
2024/01/18 06:57:21;;;;;;;7.75;4.47;;;;;;;;;;6337379;28;20102;-85
2024/01/18 07:00:24;;;;;;;7.20;4.37;;;;;;;;;;6331948;28;20390;-85
2024/01/18 07:03:29;;;;;;;7.70;4.75;;;;;;;;;;6334786;28;20020;-85
2024/01/18 07:06:29;;;;;;;7.18;4.60;;;;;;;;;;6331881;28;20131;-80
2024/01/18 07:09:31;;;;;;;9.30;4.83;;;;;;;;;;6336494;28;20028;-79
2024/01/18 07:12:32;;;;;;;9.27;4.95;;;;;;;;;;6334518;28;20023;-80
2024/01/18 07:15:32;;;;;;;7.30;5.15;;;;;;;;;;6334930;28;20028;-81
2024/01/18 07:18:33;;;;;;;8.03;4.90;;;;;;;;;;6332155;28;20040;-82
2024/01/18 07:21:33;;;;;;;6.77;4.67;;;;;;;;;;6333426;28;20024;-81
2024/01/18 07:24:34;;;;;;;7.20;4.40;;;;;;;;;;6334138;28;20060;-79
2024/01/18 07:27:34;;;;;;;6.97;4.47;;;;;;;;;;6316061;28;20103;-81
2024/01/18 07:30:34;;;;;;;6.70;4.27;;;;;;;;;;6330501;28;23440;-81
2024/01/18 07:33:34;;;;;;;7.07;3.90;;;;;;;;;;6335167;28;20048;-78
2024/01/18 07:36:35;;;;;;;8.20;4.67;;;;;;;;;;6330137;28;20028;-81
2024/01/18 07:39:35;;;;;;;9.33;4.63;;;;;;;;;;6329315;28;20336;-81
2024/01/18 07:42:35;;;;;;;6.73;4.40;;;;;;;;;;6330044;28;20321;-82
2024/01/18 07:45:36;;;;;;;6.70;4.30;;;;;;;;;;6316785;28;20022;-81
2024/01/18 07:48:36;;;;;;;6.63;4.20;;;;;;;;;;6336076;28;20420;-85
2024/01/18 07:51:36;;;;;;;7.90;4.07;;;;;;;;;;6332919;28;20376;-83
2024/01/18 07:54:36;;;;;;;8.47;5.03;;;;;;;;;;6332856;28;20020;-83
2024/01/18 07:57:37;;;;;;;9.67;5.07;;;;;;;;;;6318688;28;20027;-80
2024/01/18 08:00:37;;;;;;;8.73;5.07;;;;;;;;;;6333481;28;20023;-83
2024/01/18 08:03:37;;;;;;;10.17;4.80;;;;;;;;;;6331838;28;20811;-83
2024/01/18 08:06:38;;;;;;;8.50;4.67;;;;;;;;;;6336015;28;20431;-83
2024/01/18 08:09:38;;;;;;;7.33;4.57;;;;;;;;;;6335084;28;20123;-83
2024/01/18 08:12:38;;;;;;;8.80;4.63;;;;;;;;;;6336910;28;20498;-83
2024/01/18 08:15:41;;;;;;;8.27;4.30;;;;;;;;;;6335845;28;20091;-86
2024/01/18 08:18:41;;;;;;;7.68;4.78;;;;;;;;;;6328817;28;20027;-86
2024/01/18 08:21:44;;;;;;;9.10;5.03;;;;;;;;;;6310491;28;20539;-86
2024/01/18 08:24:44;;;;;;;7.68;4.57;;;;;;;;;;6336809;28;20047;-86
2024/01/18 08:27:45;;;;;;;8.83;4.30;;;;;;;;;;6331021;28;20367;-86
2024/01/18 08:30:45;;;;;;;7.93;4.80;;;;;;;;;;6315049;28;20069;-86
2024/01/18 08:33:46;;;;;;;7.73;4.60;;;;;;;;;;6347717;28;20024;-86
2024/01/18 08:36:46;;;;;;;7.67;4.73;;;;;;;;;;6343967;28;20388;-86
2024/01/18 08:39:46;;;;;;;8.03;4.60;;;;;;;;;;6334042;28;20032;-86
2024/01/18 08:42:46;;;;;;;8.10;4.53;;;;;;;;;;6336602;28;20085;-85
2024/01/18 08:45:47;;;;;;;6.77;3.90;;;;;;;;;;6333130;28;20019;-85
2024/01/18 08:48:47;;;;;;;7.60;5.17;;;;;;;;;;6341855;28;20031;-86
2024/01/18 08:51:47;;;;;;;9.57;5.37;;;;;;;;;;6340060;28;20449;-86
2024/01/18 08:54:47;;;;;;;7.50;4.83;;;;;;;;;;6341512;28;20384;-88
2024/01/18 08:57:49;;;;;;;7.30;4.20;;;;;;;;;;6342532;28;20026;-87
2024/01/18 09:00:49;;;;;;;8.25;4.63;;;;;;;;;;6326975;28;20047;-88
2024/01/18 09:03:50;;;;;;;9.67;5.17;;;;;;;;;;6350378;28;20024;-87
2024/01/18 09:06:51;;;;;;;7.63;4.87;;;;;;;;;;6344540;28;20058;-89
2024/01/18 09:09:51;;;;;;;8.20;5.28;;;;;;;;;;6332308;28;20040;-88
2024/01/18 09:12:52;;;;;;;6.50;4.23;;;;;;;;;;6328276;28;20066;-88
2024/01/18 09:15:52;;;;;;;7.17;4.90;;;;;;;;;;6313668;28;20450;-88
2024/01/18 09:18:52;;;;;;;6.57;4.57;;;;;;;;;;6335551;28;20028;-88
2024/01/18 09:21:52;;;;;;;7.90;4.40;;;;;;;;;;6332242;28;20043;-88
2024/01/18 09:24:53;;;;;;;6.53;4.57;;;;;;;;;;6335154;28;20024;-83
2024/01/18 09:27:54;;;;;;;9.03;4.93;;;;;;;;;;6306624;28;20501;-82
2024/01/18 09:30:54;;;;;;;8.15;4.75;;;;;;;;;;6323925;28;20481;-84
2024/01/18 09:33:54;;;;;;;8.13;4.50;;;;;;;;;;5985930;28;10000012;-81
2024/01/18 09:36:55;;;;;;;5.63;4.17;;;;;;;;;;6324528;28;20031;-83
2024/01/18 09:39:55;;;;;;;8.53;4.10;;;;;;;;;;6335617;28;20030;-82
2024/01/18 09:42:55;;;;;;;6.43;4.03;;;;;;;;;;6341488;28;20035;-81
2024/01/18 09:45:57;;;;;;;6.50;4.40;;;;;;;;;;6317536;28;20082;-81
2024/01/18 09:48:58;;;;;;;6.70;4.43;;;;;;;;;;6314530;28;20039;-87
2024/01/18 09:51:59;;;;;;;7.30;4.00;;;;;;;;;;6328316;28;20369;-85
2024/01/18 09:54:59;;;;;;;5.35;3.83;;;;;;;;;;6335463;28;20019;-84
2024/01/18 09:58:02;;;;;;;5.47;3.90;;;;;;;;;;6331952;28;20035;-85
2024/01/18 10:01:04;;;;;;;7.20;4.65;;;;;;;;;;6344100;28;20023;-85
2024/01/18 10:04:05;;;;;;;8.02;4.80;;;;;;;;;;6321993;28;20467;-85
2024/01/18 10:07:06;;;;;;;7.30;4.90;;;;;;;;;;6329838;28;20067;-85
2024/01/18 10:10:08;;;;;;;8.37;4.67;;;;;;;;;;6315067;28;20119;-85
2024/01/18 10:13:13;;;;;;;6.88;4.88;;;;;;;;;;6332614;28;20019;-85
2024/01/18 10:16:24;;;;;;;6.25;4.25;;;;;;;;;;6335949;28;20035;-85
2024/01/18 10:19:25;;;;;;;6.13;4.43;;;;;;;;;;6333570;28;20395;-85
2024/01/18 10:22:26;;;;;;;6.90;4.35;;;;;;;;;;6340700;28;20027;-85
2024/01/18 10:25:26;;;;;;;7.40;4.43;;;;;;;;;;6334583;28;20380;-86
2024/01/18 10:28:28;;;;;;;7.50;3.83;;;;;;;;;;6332643;28;20047;-85
2024/01/18 10:31:31;;;;;;;6.60;4.47;;;;;;;;;;6338502;28;20025;-86
2024/01/18 10:34:35;;;;;;;6.93;3.75;;;;;;;;;;6329716;28;20482;-87
2024/01/18 10:37:36;;;;;;;6.55;3.97;;;;;;;;;;6312154;28;20535;-85
2024/01/18 10:40:36;;;;;;;8.18;4.45;;;;;;;;;;6334517;28;20072;-85
2024/01/18 10:43:37;;;;;;;7.40;4.30;;;;;;;;;;6340606;28;20027;-85
2024/01/18 10:46:37;;;;;;;6.60;4.40;;;;;;;;;;6332700;28;20053;-85
2024/01/18 10:49:38;;;;;;;7.37;4.57;;;;;;;;;;6329970;28;20036;-86
2024/01/18 10:52:39;;;;;;;7.50;4.43;;;;;;;;;;6346860;28;20031;-82
2024/01/18 10:55:39;;;;;;;7.37;4.40;;;;;;;;;;6345142;28;20078;-81
2024/01/18 10:58:39;;;;;;;6.40;4.07;;;;;;;;;;6334206;28;20016;-83
2024/01/18 11:01:40;;;;;;;6.87;4.37;;;;;;;;;;6336447;28;20024;-83
2024/01/18 11:04:40;;;;;;;5.87;3.83;;;;;;;;;;6312803;28;20541;-82
2024/01/18 11:07:41;;;;;;;6.83;4.40;;;;;;;;;;6308595;28;20492;-81
2024/01/18 11:10:42;;;;;;;7.77;4.37;;;;;;;;;;6333823;28;20085;-83
2024/01/18 11:13:42;;;;;;;5.72;4.00;;;;;;;;;;6327532;28;20464;-84
2024/01/18 11:16:42;;;;;;;7.97;4.40;;;;;;;;;;6321364;28;20403;-84
2024/01/18 11:19:45;;;;;;;7.67;4.50;;;;;;;;;;6334460;28;20415;-84
2024/01/18 11:22:46;;;;;;;7.85;4.97;;;;;;;;;;6335981;28;20385;-84
2024/01/18 11:25:46;;;;;;;8.57;4.87;;;;;;;;;;6334001;28;20118;-88
2024/01/18 11:28:46;;;;;;;7.77;4.97;;;;;;;;;;6342528;28;20495;-85
2024/01/18 11:31:51;;;;;;;7.40;4.87;;;;;;;;;;6338806;28;20049;-85
2024/01/18 11:34:55;;;;;;;6.90;4.80;;;;;;;;;;6312776;28;20532;-85
2024/01/18 11:38:13;;;;;;;8.27;5.53;;;;;;;;;;6338663;28;20051;-85
2024/01/18 11:41:19;;;;;;;7.50;4.82;;;;;;;;;;6333320;28;20040;-84
2024/01/18 11:44:19;;;;;;;8.25;5.25;;;;;;;;;;6330755;28;20491;-85
2024/01/18 11:47:20;;;;;;;7.53;5.20;;;;;;;;;;6328197;28;20024;-87
2024/01/18 11:50:20;;;;;;;6.80;5.10;;;;;;;;;;6332865;28;20012;-87
2024/01/18 11:53:20;;;;;;;7.37;5.23;;;;;;;;;;6327961;28;20306;-87
2024/01/18 11:56:23;;;;;;;7.10;4.30;;;;;;;;;;5976826;28;10000437;-86
2024/01/18 11:59:23;;;;;;;7.07;5.03;;;;;;;;;;6314266;28;20040;-87
2024/01/18 12:02:24;;;;;;;8.40;5.47;;;;;;;;;;6326241;28;20043;-87
2024/01/18 12:05:25;;;;;;;7.70;5.75;;;;;;;;;;6321237;28;20518;-85
2024/01/18 12:08:26;;;;;;;8.97;5.87;;;;;;;;;;6329704;28;20031;-87
2024/01/18 12:11:26;;;;;;;6.80;4.93;;;;;;;;;;6333286;28;20352;-87
2024/01/18 12:14:27;;;;;;;10.13;5.97;;;;;;;;;;6334571;28;20253;-86
2024/01/18 12:17:27;;;;;;;8.43;6.20;;;;;;;;;;6339201;28;20103;-86
2024/01/18 12:20:27;;;;;;;10.20;6.27;;;;;;;;;;6341278;28;20019;-86
2024/01/18 12:23:28;;;;;;;9.03;6.57;;;;;;;;;;6337645;28;20054;-87
2024/01/18 12:26:30;;;;;;;9.63;6.32;;;;;;;;;;6343940;28;20024;-86
2024/01/18 12:29:31;;;;;;;9.90;6.13;;;;;;;;;;6336063;28;20085;-86
2024/01/18 12:32:31;;;;;;;8.57;6.30;;;;;;;;;;6334359;28;20483;-86
2024/01/18 12:35:35;;;;;;;8.73;5.87;;;;;;;;;;6336219;28;20028;-86
2024/01/18 12:38:35;;;;;;;7.53;5.90;;;;;;;;;;6308440;28;20023;-87
2024/01/18 12:41:36;;;;;;;7.10;5.03;;;;;;;;;;6333446;28;20017;-87
2024/01/18 12:44:36;;;;;;;8.50;4.95;;;;;;;;;;6328631;28;20022;-86
2024/01/18 12:47:37;;;;;;;7.23;4.73;;;;;;;;;;6336460;28;20065;-86
2024/01/18 12:50:37;;;;;;;6.87;5.03;;;;;;;;;;6323367;28;20464;-86
2024/01/18 12:53:37;;;;;;;6.43;5.17;;;;;;;;;;6324349;28;20019;-86
2024/01/18 12:56:38;;;;;;;6.97;4.87;;;;;;;;;;6329455;28;20008;-86
2024/01/18 12:59:38;;;;;;;8.00;5.07;;;;;;;;;;6335732;28;20030;-86
2024/01/18 13:02:39;;;;;;;7.43;4.20;;;;;;;;;;6345754;28;20065;-87
2024/01/18 13:05:43;;;;;;;8.70;5.07;;;;;;;;;;6308902;28;20024;-86
2024/01/18 13:08:44;;;;;;;6.35;4.97;;;;;;;;;;6307569;28;20028;-87
2024/01/18 13:11:45;;;;;;;7.63;5.65;;;;;;;;;;6310499;28;20032;-86
2024/01/18 13:14:46;;;;;;;7.30;5.15;;;;;;;;;;6299563;28;20052;-86
2024/01/18 13:17:46;;;;;;;8.17;5.47;;;;;;;;;;6311898;28;20029;-85
2024/01/18 13:20:46;;;;;;;8.37;5.27;;;;;;;;;;6305336;28;20054;-89
2024/01/18 13:23:47;;;;;;;8.07;5.43;;;;;;;;;;6320562;28;20056;-88
2024/01/18 13:26:47;;;;;;;7.33;5.60;;;;;;;;;;6311824;28;20023;-89
2024/01/18 13:29:48;;;;;;;8.03;5.67;;;;;;;;;;6317662;28;20484;-89
2024/01/18 13:32:49;;;;;;;7.33;5.07;;;;;;;;;;6322064;28;20278;-89
2024/01/18 13:35:50;;;;;;;6.95;5.05;;;;;;;;;;6287526;28;20047;-89
2024/01/18 13:38:50;;;;;;;8.30;5.23;;;;;;;;;;6315179;28;20099;-90
2024/01/18 13:41:51;;;;;;;7.47;5.63;;;;;;;;;;6312919;28;20055;-89
2024/01/18 13:44:51;;;;;;;6.60;5.40;;;;;;;;;;6323511;28;20085;-89
2024/01/18 13:47:51;;;;;;;8.57;5.70;;;;;;;;;;6302326;28;20020;-90
2024/01/18 13:50:57;;;;;;;9.20;5.23;;;;;;;;;;6315697;28;20027;-89
2024/01/18 13:53:58;;;;;;;8.90;5.72;;;;;;;;;;6320740;28;20035;-89
2024/01/18 13:56:58;;;;;;;8.57;5.63;;;;;;;;;;6309600;28;20024;-89
2024/01/18 13:59:58;;;;;;;6.17;5.13;;;;;;;;;;6317879;28;20526;-89
2024/01/18 14:02:59;;;;;;;7.57;5.17;;;;;;;;;;6298451;28;20029;-89
2024/01/18 14:06:00;;;;;;;7.10;5.10;;;;;;;;;;6318755;28;20047;-89
2024/01/18 14:09:00;;;;;;;7.53;5.15;;;;;;;;;;6298183;28;20756;-88
2024/01/18 14:12:04;;;;;;;6.77;4.93;;;;;;;;;;6304232;28;20075;-89
2024/01/18 14:15:04;;;;;;;7.50;5.20;;;;;;;;;;6314550;28;20032;-89
2024/01/18 14:18:05;;;;;;;6.60;5.07;;;;;;;;;;6298923;28;20150;-89
2024/01/18 14:21:08;;;;;;;6.30;5.07;;;;;;;;;;6300543;28;20016;-89
2024/01/18 14:24:09;;;;;;;7.10;5.20;;;;;;;;;;6320421;28;20012;-89
2024/01/18 14:27:09;;;;;;;6.87;5.30;;;;;;;;;;6318305;28;20016;-90
2024/01/18 14:30:10;;;;;;;6.90;4.80;;;;;;;;;;6298718;28;20032;-89
2024/01/18 14:33:13;;;;;;;7.95;4.97;;;;;;;;;;6320599;28;20024;-89
2024/01/18 14:36:13;;;;;;;8.63;5.20;;;;;;;;;;6292004;28;20063;-89
2024/01/18 14:39:15;;;;;;;8.20;5.03;;;;;;;;;;6311202;28;20035;-88
2024/01/18 14:42:16;;;;;;;5.88;4.60;;;;;;;;;;6324929;28;20473;-89
2024/01/18 14:45:16;;;;;;;6.10;5.03;;;;;;;;;;6313864;28;20031;-89
2024/01/18 14:48:16;;;;;;;8.07;4.43;;;;;;;;;;6293655;28;20027;-89
2024/01/18 14:51:19;;;;;;;5.97;4.77;;;;;;;;;;6318997;28;20023;-89
2024/01/18 14:54:19;;;;;;;6.45;4.20;;;;;;;;;;6319082;28;20016;-89
2024/01/18 14:57:21;;;;;;;6.70;4.60;;;;;;;;;;6312131;28;20024;-89
2024/01/18 15:00:21;;;;;;;6.15;4.57;;;;;;;;;;6302554;28;20028;-89
2024/01/18 15:03:21;;;;;;;7.10;4.20;;;;;;;;;;6296858;28;20028;-89
2024/01/18 15:06:21;;;;;;;5.93;4.33;;;;;;;;;;6309754;28;20138;-89
2024/01/18 15:09:22;;;;;;;5.13;4.03;;;;;;;;;;6348677;28;20491;-89
2024/01/18 15:12:22;;;;;;;6.90;4.73;;;;;;;;;;6347629;28;20039;-90
2024/01/18 15:15:22;;;;;;;6.90;5.00;;;;;;;;;;6343590;28;20011;-89
2024/01/18 15:18:23;;;;;;;7.67;5.10;;;;;;;;;;6317848;28;20055;-90
2024/01/18 15:21:24;;;;;;;9.73;5.97;;;;;;;;;;6332320;28;20059;-90
2024/01/18 15:24:24;;;;;;;7.93;5.60;;;;;;;;;;6321661;28;20115;-89
2024/01/18 15:27:24;;;;;;;10.33;6.07;;;;;;;;;;6319873;28;20024;-88
2024/01/18 15:30:25;;;;;;;10.13;6.33;;;;;;;;;;6312352;28;20081;-87
2024/01/18 15:33:25;;;;;;;9.60;6.40;;;;;;;;;;6319625;28;20495;-88
2024/01/18 15:36:25;;;;;;;8.00;6.07;;;;;;;;;;6320106;28;20019;-86
2024/01/18 15:39:27;;;;;;;9.13;6.13;;;;;;;;;;6337580;28;20031;-88
2024/01/18 15:42:27;;;;;;;;;;;;;;;;;;6345986;28;20049;-88
2024/01/18 15:45:27;;;;;;;9.48;5.32;;;;;;;;;;6329842;28;19907;-88
2024/01/18 15:48:31;;;;;;;8.80;5.83;;;;;;;;;;6329175;28;20027;-88
2024/01/18 15:51:33;;;;;;;7.45;5.88;;;;;;;;;;6315842;28;20031;-87
2024/01/18 15:54:33;;;;;;;7.80;6.05;;;;;;;;;;6333648;28;20026;-88
2024/01/18 15:57:33;;;;;;;8.57;6.00;;;;;;;;;;6338205;28;20499;-85
2024/01/18 16:00:33;;;;;;;8.00;5.47;;;;;;;;;;6332714;28;20537;-82
2024/01/18 16:03:37;;;;;;;8.90;5.23;;;;;;;;;;6344383;28;20439;-82
2024/01/18 16:06:37;;;;;;;8.38;5.50;;;;;;;;;;6335366;28;20044;-82
2024/01/18 16:09:37;;;;;;;8.10;4.97;;;;;;;;;;6313221;28;20026;-82
2024/01/18 16:12:39;;;;;;;7.23;4.37;;;;;;;;;;6337618;28;20019;-82
2024/01/18 16:15:39;;;;;;;6.47;4.82;;;;;;;;;;6320512;28;20020;-82
2024/01/18 16:18:39;;;;;;;7.50;5.27;;;;;;;;;;6344954;28;20124;-82
2024/01/18 16:21:39;;;;;;;7.93;4.93;;;;;;;;;;6337119;28;20023;-82
2024/01/18 16:24:40;;;;;;;7.43;5.20;;;;;;;;;;6340895;28;20035;-82
2024/01/18 16:27:40;;;;;;;6.33;4.23;;;;;;;;;;6342459;28;20024;-82
2024/01/18 16:30:41;;;;;;;7.50;5.23;;;;;;;;;;6336400;28;20466;-80
2024/01/18 16:33:41;;;;;;;6.30;5.10;;;;;;;;;;6333077;28;20443;-79
2024/01/18 16:36:42;;;;;;;9.33;5.77;;;;;;;;;;6330150;28;20262;-80
2024/01/18 16:39:42;;;;;;;7.13;5.03;;;;;;;;;;6339206;28;20027;-79
2024/01/18 16:42:42;;;;;;;6.80;5.03;;;;;;;;;;6337681;28;20016;-80
2024/01/18 16:45:43;;;;;;;7.47;5.20;;;;;;;;;;6332098;28;20036;-80
2024/01/18 16:48:43;;;;;;;6.17;4.80;;;;;;;;;;6335300;28;20046;-80
2024/01/18 16:51:43;;;;;;;8.20;5.33;;;;;;;;;;6345051;28;20525;-81
2024/01/18 16:54:44;;;;;;;7.20;5.20;;;;;;;;;;6339129;28;20023;-80
2024/01/18 16:57:44;;;;;;;7.17;4.97;;;;;;;;;;6343001;28;20119;-80
2024/01/18 17:00:44;;;;;;;6.37;4.87;;;;;;;;;;6344085;28;20023;-80
2024/01/18 17:03:45;;;;;;;7.30;5.03;;;;;;;;;;6337391;28;20032;-79
2024/01/18 17:06:45;;;;;;;6.37;4.63;;;;;;;;;;6340506;28;20043;-78
2024/01/18 17:09:45;;;;;;;6.57;4.60;;;;;;;;;;6329363;28;20036;-78
2024/01/18 17:12:46;;;;;;;5.40;4.10;;;;;;;;;;6348277;28;20088;-79
2024/01/18 17:15:46;;;;;;;6.50;4.03;;;;;;;;;;6347809;27;20528;-79
2024/01/18 17:18:47;;;;;;;5.72;4.13;;;;;;;;;;6341850;28;20492;-79
2024/01/18 17:21:47;;;;;;;8.93;5.33;;;;;;;;;;6346152;28;20036;-81
2024/01/18 17:24:47;;;;;;;7.57;5.33;;;;;;;;;;6344609;28;20015;-81
2024/01/18 17:27:48;;;;;;;6.43;4.83;;;;;;;;;;6339544;28;20760;-80
2024/01/18 17:30:48;;;;;;;5.70;3.93;;;;;;;;;;6330383;28;20422;-81
2024/01/18 17:33:49;;;;;;;5.73;4.30;;;;;;;;;;6314890;28;20008;-81
2024/01/18 17:36:49;;;;;;;4.18;3.20;;;;;;;;;;6339302;28;20026;-80
2024/01/18 17:39:50;;;;;;;3.20;2.27;;;;;;;;;;6348423;28;20035;-80
2024/01/18 17:42:50;;;;;;;2.88;2.00;;;;;;;;;;6337858;28;20376;-81
2024/01/18 17:45:51;;;;;;;2.07;1.70;;;;;;;;;;6332151;28;20028;-80
2024/01/18 17:48:51;;;;;;;2.53;1.67;;;;;;;;;;6336246;28;20020;-81
2024/01/18 17:51:51;;;;;;;3.50;1.50;;;;;;;;;;6346599;28;20032;-81
2024/01/18 17:54:58;;;;;;;1.43;1.13;;;;;;;;;;6347489;28;20043;-81
2024/01/18 17:57:58;;;;;;;0.75;0.70;;;;;;;;;;6310326;28;20051;-82
2024/01/18 18:01:04;;;;;;;1.00;0.60;;;;;;;;;;6343969;28;20023;-83
2024/01/18 18:04:04;;;;;;;0.90;0.45;;;;;;;;;;6339675;28;20020;-82